Silia — WDG2034 — position and weather

sailwx.info

Track history (hours):
 
Tides and Currents Weather Stations Pressure Air Temp Water Temp Dewpoint Dewpoint Depression Visibility Wind Speed Wind Dir Waves Ship Positions

Silia

Owner: greger pacific marine, napa, CA. More information available from US FCC via Universal Licensing System and Coast Guard Vessel Documentation Center.

Last reported at 2016-Jul-01 20:29 UTC. Time now 2016-Jul-01 20:54 UTC.
Position N 37°46' W 122°23'.

Length 17 m; draft 3 m.

Type: Tug. MMSI: 367511460.

Date/timePositionNaut miles runAvg speedWind from/ knotsBaromVisibWave heightAir tempDewpointWater temp
2016-Jul-01 20:29N 37°46' W 122°23'2 0.8
2016-Jul-01 18:33N 37°47' W 122°23'1 0.7
2016-Jul-01 17:33N 37°47' W 122°23'1 0.3
2016-Jul-01 15:33N 37°46' W 122°23'2 2.1
2016-Jul-01 14:33N 37°48' W 122°23'5 4.8
2016-Jul-01 13:33N 37°44' W 122°21'0 0.0
2016-Jun-30 22:33N 37°44' W 122°21'7 6.8
2016-Jun-30 21:33N 37°49' W 122°25'6 6.1
2016-Jun-30 20:33N 37°44' W 122°21'1 0.7
2016-Jun-30 19:30N 37°43' W 122°21'6 6.2
2016-Jun-30 18:33N 37°49' W 122°24'3 3.1
2016-Jun-30 17:33N 37°46' W 122°22'6 5.2
2016-Jun-30 16:25N 37°40' W 122°23'4 4.7
2016-Jun-30 15:33N 37°44' W 122°22'5 5.4
2016-Jun-30 14:33N 37°49' W 122°24'5 5.0
2016-Jun-30 13:33N 37°44' W 122°22'3 0.2
2016-Jun-29 21:33N 37°47' W 122°23'0 0.3
2016-Jun-29 20:33N 37°47' W 122°23'4 2.6
2016-Jun-29 19:09N 37°44' W 122°21'4 6.6
2016-Jun-29 18:33N 37°47' W 122°23'1 0.5
2016-Jun-29 17:33N 37°47' W 122°23'1 0.6
2016-Jun-29 15:33N 37°46' W 122°22'3 2.8
2016-Jun-29 14:33N 37°48' W 122°24'5 5.3
2016-Jun-29 13:34N 37°43' W 122°21'1 0.1
2016-Jun-28 23:23N 37°43' W 122°21'7 9.0
2016-Jun-28 22:33N 37°49' W 122°25'4 3.9
2016-Jun-28 21:33N 37°46' W 122°23'2 1.0
2016-Jun-28 19:33N 37°44' W 122°21'6 6.0
2016-Jun-28 18:33N 37°49' W 122°25'5 5.2
2016-Jun-28 17:33N 37°45' W 122°22'3 2.4
2016-Jun-28 16:21N 37°42' W 122°21'4 5.5
2016-Jun-28 15:33N 37°47' W 122°23'2 2.3
2016-Jun-28 14:30N 37°49' W 122°24'5 5.1
2016-Jun-28 13:33N 37°44' W 122°21'0 0.0
2016-Jun-27 22:25N 37°44' W 122°21'6 7.2
2016-Jun-27 21:33N 37°49' W 122°25'6 5.8
2016-Jun-27 20:33N 37°44' W 122°22'1 0.4
2016-Jun-27 19:18N 37°44' W 122°21'5 6.4
2016-Jun-27 18:33N 37°48' W 122°24'2 2.2
2016-Jun-27 17:33N 37°46' W 122°22'2 0.1
2016-Jun-26 23:33N 37°48' W 122°24'1 1.2
2016-Jun-26 22:33N 37°47' W 122°23'  
2016-Jun-23 23:33N 37°46' W 122°22'3 2.3
2016-Jun-23 22:22N 37°48' W 122°24'6 6.8
2016-Jun-23 21:33N 37°43' W 122°21'2 1.3
2016-Jun-23 20:22N 37°45' W 122°22'5 3.9
2016-Jun-23 19:12N 37°49' W 122°24'2 3.3
2016-Jun-23 18:33N 37°47' W 122°23'4 4.1
2016-Jun-23 17:33N 37°43' W 122°21'3 0.1
2016-Jun-22 23:33N 37°45' W 122°22'3 2.5
2016-Jun-22 22:20N 37°48' W 122°24'6 7.5
2016-Jun-22 21:33N 37°43' W 122°21'1 1.0
2016-Jun-22 20:31N 37°44' W 122°21'5 3.6
2016-Jun-22 19:07N 37°49' W 122°24'2 3.4
2016-Jun-22 18:33N 37°47' W 122°23'4 3.7
2016-Jun-22 17:27N 37°43' W 122°21'4 0.3
2016-Jun-22 00:33N 37°47' W 122°23'1 0.9
2016-Jun-21 23:33N 37°48' W 122°23'3 1.4
2016-Jun-21 21:33N 37°45' W 122°22'  
Track history (hours):
 
Tides and Currents Weather Stations Pressure Air Temp Water Temp Dewpoint Dewpoint Depression Visibility Wind Speed Wind Dir Waves Ship Positions

Silia

Owner: greger pacific marine, napa, CA. More information available from US FCC via Universal Licensing System and Coast Guard Vessel Documentation Center.

Last reported at 2016-Jul-01 20:29 UTC. Time now 2016-Jul-01 20:54 UTC.
Position N 37°46' W 122°23'.

Length 17 m; draft 3 m.

Type: Tug. MMSI: 367511460.

Date/timePositionNaut miles runAvg speedWind from/ knotsBaromVisibWave heightAir tempDewpointWater temp
2016-Jul-01 20:29N 37°46' W 122°23'2 0.8
2016-Jul-01 18:33N 37°47' W 122°23'1 0.7
2016-Jul-01 17:33N 37°47' W 122°23'1 0.3
2016-Jul-01 15:33N 37°46' W 122°23'2 2.1
2016-Jul-01 14:33N 37°48' W 122°23'5 4.8
2016-Jul-01 13:33N 37°44' W 122°21'0 0.0
2016-Jun-30 22:33N 37°44' W 122°21'7 6.8
2016-Jun-30 21:33N 37°49' W 122°25'6 6.1
2016-Jun-30 20:33N 37°44' W 122°21'1 0.7
2016-Jun-30 19:30N 37°43' W 122°21'6 6.2
2016-Jun-30 18:33N 37°49' W 122°24'3 3.1
2016-Jun-30 17:33N 37°46' W 122°22'6 5.2
2016-Jun-30 16:25N 37°40' W 122°23'4 4.7
2016-Jun-30 15:33N 37°44' W 122°22'5 5.4
2016-Jun-30 14:33N 37°49' W 122°24'5 5.0
2016-Jun-30 13:33N 37°44' W 122°22'3 0.2
2016-Jun-29 21:33N 37°47' W 122°23'0 0.3
2016-Jun-29 20:33N 37°47' W 122°23'4 2.6
2016-Jun-29 19:09N 37°44' W 122°21'4 6.6
2016-Jun-29 18:33N 37°47' W 122°23'1 0.5
2016-Jun-29 17:33N 37°47' W 122°23'1 0.6
2016-Jun-29 15:33N 37°46' W 122°22'3 2.8
2016-Jun-29 14:33N 37°48' W 122°24'5 5.3
2016-Jun-29 13:34N 37°43' W 122°21'1 0.1
2016-Jun-28 23:23N 37°43' W 122°21'7 9.0
2016-Jun-28 22:33N 37°49' W 122°25'4 3.9
2016-Jun-28 21:33N 37°46' W 122°23'2 1.0
2016-Jun-28 19:33N 37°44' W 122°21'6 6.0
2016-Jun-28 18:33N 37°49' W 122°25'5 5.2
2016-Jun-28 17:33N 37°45' W 122°22'3 2.4
2016-Jun-28 16:21N 37°42' W 122°21'4 5.5
2016-Jun-28 15:33N 37°47' W 122°23'2 2.3
2016-Jun-28 14:30N 37°49' W 122°24'5 5.1
2016-Jun-28 13:33N 37°44' W 122°21'0 0.0
2016-Jun-27 22:25N 37°44' W 122°21'6 7.2
2016-Jun-27 21:33N 37°49' W 122°25'6 5.8
2016-Jun-27 20:33N 37°44' W 122°22'1 0.4
2016-Jun-27 19:18N 37°44' W 122°21'5 6.4
2016-Jun-27 18:33N 37°48' W 122°24'2 2.2
2016-Jun-27 17:33N 37°46' W 122°22'2 0.1
2016-Jun-26 23:33N 37°48' W 122°24'1 1.2
2016-Jun-26 22:33N 37°47' W 122°23'  
2016-Jun-23 23:33N 37°46' W 122°22'3 2.3
2016-Jun-23 22:22N 37°48' W 122°24'6 6.8
2016-Jun-23 21:33N 37°43' W 122°21'2 1.3
2016-Jun-23 20:22N 37°45' W 122°22'5 3.9
2016-Jun-23 19:12N 37°49' W 122°24'2 3.3
2016-Jun-23 18:33N 37°47' W 122°23'4 4.1
2016-Jun-23 17:33N 37°43' W 122°21'3 0.1
2016-Jun-22 23:33N 37°45' W 122°22'3 2.5
2016-Jun-22 22:20N 37°48' W 122°24'6 7.5
2016-Jun-22 21:33N 37°43' W 122°21'1 1.0
2016-Jun-22 20:31N 37°44' W 122°21'5 3.6
2016-Jun-22 19:07N 37°49' W 122°24'2 3.4
2016-Jun-22 18:33N 37°47' W 122°23'4 3.7
2016-Jun-22 17:27N 37°43' W 122°21'4 0.3
2016-Jun-22 00:33N 37°47' W 122°23'1 0.9
2016-Jun-21 23:33N 37°48' W 122°23'3 1.4
2016-Jun-21 21:33N 37°45' W 122°22'  

Dump ship's entire track history